createdAt,value
2019-05-14T00:02:17.550Z,3.70
2019-05-14T00:04:44.949Z,3.40
2019-05-14T00:07:12.377Z,3.77
2019-05-14T00:09:41.423Z,3.20
2019-05-14T00:12:07.274Z,2.90
2019-05-14T00:14:39.728Z,3.07
2019-05-14T00:17:02.117Z,3.43
2019-05-14T00:19:31.363Z,3.10
2019-05-14T00:21:56.973Z,3.37
2019-05-14T00:24:24.355Z,2.60
2019-05-14T00:26:51.866Z,3.30
2019-05-14T00:29:21.862Z,2.80
2019-05-14T00:31:46.612Z,3.20
2019-05-14T00:34:14.044Z,3.40
2019-05-14T00:36:41.901Z,3.10
2019-05-14T00:39:11.044Z,3.17
2019-05-14T00:41:36.319Z,3.23
2019-05-14T00:44:03.860Z,2.80
2019-05-14T00:46:31.562Z,3.43
2019-05-14T00:48:58.698Z,3.00
2019-05-14T00:51:26.111Z,2.60
2019-05-14T00:53:53.540Z,2.73
2019-05-14T00:56:21.609Z,2.70
2019-05-14T00:58:48.379Z,2.90
2019-05-14T01:01:15.804Z,2.93
2019-05-14T01:03:43.218Z,3.00
2019-05-14T01:06:11.370Z,3.50
2019-05-14T01:08:38.037Z,2.60
2019-05-14T01:11:05.458Z,2.60
2019-05-14T01:13:32.862Z,2.80
2019-05-14T01:16:01.584Z,2.60
2019-05-14T01:18:27.705Z,2.63
2019-05-14T01:20:55.137Z,2.80
2019-05-14T01:23:22.654Z,2.60
2019-05-14T01:25:51.683Z,3.17
2019-05-14T01:28:21.637Z,3.10
2019-05-14T01:30:47.442Z,3.17
2019-05-14T01:33:14.842Z,2.77
2019-05-14T01:35:42.268Z,2.80
2019-05-14T01:38:11.512Z,3.00
2019-05-14T01:40:37.147Z,3.27
2019-05-14T01:43:04.580Z,2.80
2019-05-14T01:45:31.997Z,3.20
2019-05-14T01:48:01.186Z,3.20
2019-05-14T01:50:26.984Z,2.90
2019-05-14T01:52:54.403Z,3.33
2019-05-14T01:55:22.001Z,2.67
2019-05-14T01:57:51.567Z,3.00
2019-05-14T02:00:16.629Z,3.00
2019-05-14T02:02:44.063Z,2.70
2019-05-14T02:05:12.434Z,2.90
2019-05-14T02:07:38.946Z,3.17
2019-05-14T02:10:06.367Z,3.00
2019-05-14T02:12:33.839Z,2.70
2019-05-14T02:15:01.880Z,3.27
2019-05-14T02:17:28.688Z,2.90
2019-05-14T02:19:59.184Z,3.20
2019-05-14T02:22:26.624Z,3.00
2019-05-14T02:24:54.023Z,2.90
2019-05-14T02:27:21.550Z,3.47
2019-05-14T02:29:48.855Z,2.90
2019-05-14T02:32:18.450Z,2.80
2019-05-14T02:34:43.691Z,3.33
2019-05-14T02:37:11.122Z,3.03
2019-05-14T02:39:41.008Z,3.80
2019-05-14T02:42:09.024Z,3.10
2019-05-14T02:44:36.058Z,3.53
2019-05-14T02:47:03.468Z,3.30
2019-05-14T02:49:30.913Z,3.53
2019-05-14T02:51:59.105Z,3.93
2019-05-14T02:54:25.741Z,3.30
2019-05-14T02:56:53.148Z,3.50
2019-05-14T02:59:20.559Z,3.27
2019-05-14T03:01:50.374Z,3.33
2019-05-14T03:04:15.428Z,3.53
2019-05-14T03:06:42.832Z,3.40
2019-05-14T03:09:10.251Z,3.50
2019-05-14T03:11:40.321Z,3.70
2019-05-14T03:14:05.076Z,3.37
2019-05-14T03:16:35.854Z,3.77
2019-05-14T03:18:59.926Z,3.83
2019-05-14T03:21:30.163Z,3.27
2019-05-14T03:23:54.777Z,3.40
2019-05-14T03:26:22.181Z,3.50
2019-05-14T03:28:50.056Z,3.77
2019-05-14T03:31:21.851Z,3.40
2019-05-14T03:33:45.023Z,4.03
2019-05-14T03:36:17.954Z,3.97
2019-05-14T03:38:39.849Z,3.93
2019-05-14T03:41:09.138Z,3.83
2019-05-14T03:43:34.111Z,4.07
2019-05-14T03:46:01.562Z,3.83
2019-05-14T03:48:29.886Z,3.80
2019-05-14T03:50:59.800Z,4.00
2019-05-14T03:53:23.834Z,4.00
2019-05-14T03:55:51.276Z,4.00
2019-05-14T03:58:21.196Z,4.10
2019-05-14T04:00:49.592Z,4.37
2019-05-14T04:03:13.530Z,4.30
2019-05-14T04:05:40.963Z,4.60
2019-05-14T04:08:09.705Z,4.70
2019-05-14T04:10:39.094Z,4.30
2019-05-14T04:13:03.203Z,4.30
2019-05-14T04:15:30.629Z,3.90
2019-05-14T04:17:59.686Z,4.90
2019-05-14T04:20:25.481Z,4.87
2019-05-14T04:22:52.914Z,4.30
2019-05-14T04:25:20.320Z,4.50
2019-05-14T04:27:49.486Z,4.80
2019-05-14T04:30:19.076Z,4.43
2019-05-14T04:32:42.691Z,4.40
2019-05-14T04:35:10.043Z,4.90
2019-05-14T04:37:39.867Z,4.80
2019-05-14T04:40:09.961Z,4.77
2019-05-14T04:42:35.022Z,4.17
2019-05-14T04:45:05.485Z,4.10
2019-05-14T04:47:36.707Z,4.47
2019-05-14T04:49:59.153Z,4.97
2019-05-14T04:52:24.742Z,4.83
2019-05-14T04:54:52.166Z,4.63
2019-05-14T04:57:22.621Z,4.90
2019-05-14T04:59:49.351Z,4.50
2019-05-14T05:02:19.760Z,4.70
2019-05-14T05:04:44.689Z,4.90
2019-05-14T05:07:12.144Z,4.70
2019-05-14T05:09:40.159Z,5.30
2019-05-14T05:12:09.093Z,4.77
2019-05-14T05:14:34.429Z,4.80
2019-05-14T05:17:01.842Z,4.40
2019-05-14T05:19:29.388Z,4.07
2019-05-14T05:21:58.677Z,4.60
2019-05-14T05:24:24.085Z,3.97
2019-05-14T05:26:51.541Z,4.37
2019-05-14T05:29:19.012Z,4.33
2019-05-14T05:31:48.626Z,4.73
2019-05-14T05:34:13.862Z,4.30
2019-05-14T05:36:41.325Z,4.47
2019-05-14T05:39:08.836Z,4.80
2019-05-14T05:41:38.324Z,4.87
2019-05-14T05:44:03.623Z,4.37
2019-05-14T05:46:31.081Z,4.60
2019-05-14T05:48:58.877Z,5.30
2019-05-14T05:51:25.959Z,4.67
2019-05-14T05:53:53.428Z,4.50
2019-05-14T05:56:20.830Z,4.73
2019-05-14T05:58:48.924Z,4.80
2019-05-14T06:01:15.731Z,4.77
2019-05-14T06:03:43.132Z,4.83
2019-05-14T06:06:13.502Z,4.30
2019-05-14T06:08:38.767Z,4.67
2019-05-14T06:11:05.454Z,5.60
2019-05-14T06:13:32.899Z,5.60
2019-05-14T06:16:00.349Z,4.77
2019-05-14T06:18:28.591Z,4.97
2019-05-14T06:20:55.208Z,5.50
2019-05-14T06:23:22.598Z,4.90
2019-05-14T06:25:50.064Z,5.20
2019-05-14T06:28:20.534Z,5.10
2019-05-14T06:30:44.969Z,5.13
2019-05-14T06:33:12.381Z,4.80
2019-05-14T06:35:40.031Z,5.20
2019-05-14T06:38:08.902Z,4.90
2019-05-14T06:40:34.697Z,4.80
2019-05-14T06:43:02.135Z,4.67
2019-05-14T06:45:29.539Z,5.27
2019-05-14T06:47:59.174Z,5.50
2019-05-14T06:50:24.393Z,4.80
2019-05-14T06:52:51.803Z,4.93
2019-05-14T06:55:19.262Z,4.70
2019-05-14T06:57:48.059Z,4.63
2019-05-14T07:00:14.134Z,5.20
2019-05-14T07:02:44.061Z,4.90
2019-05-14T07:05:09.010Z,4.83
2019-05-14T07:07:39.384Z,4.90
2019-05-14T07:10:03.883Z,4.27
2019-05-14T07:12:31.338Z,5.17
2019-05-14T07:14:58.785Z,4.67
2019-05-14T07:17:28.608Z,4.70
2019-05-14T07:19:53.603Z,4.83
2019-05-14T07:22:21.046Z,4.70
2019-05-14T07:24:49.631Z,4.00
2019-05-14T07:27:15.918Z,4.17
2019-05-14T07:29:43.360Z,4.40
2019-05-14T07:32:10.806Z,4.37
2019-05-14T07:34:38.881Z,4.30
2019-05-14T07:37:05.656Z,3.77
2019-05-14T07:39:33.074Z,4.30
2019-05-14T07:42:00.511Z,4.00
2019-05-14T07:44:29.636Z,4.30
2019-05-14T07:46:55.361Z,4.30
2019-05-14T07:49:22.808Z,4.20
2019-05-14T07:51:50.262Z,4.27
2019-05-14T07:54:19.506Z,4.17
2019-05-14T07:56:45.146Z,3.90
2019-05-14T07:59:12.609Z,3.93
2019-05-14T08:01:40.017Z,3.53
2019-05-14T08:04:11.036Z,3.67
2019-05-14T08:06:34.968Z,3.83
2019-05-14T08:09:02.321Z,3.83
2019-05-14T08:11:29.763Z,3.90
2019-05-14T08:13:58.495Z,3.90
2019-05-14T08:16:24.615Z,4.37
2019-05-14T08:18:52.060Z,4.23
2019-05-14T08:21:19.744Z,3.50
2019-05-14T08:23:48.087Z,4.00
2019-05-14T08:26:14.377Z,4.20
2019-05-14T08:28:41.857Z,3.70
2019-05-14T08:31:09.617Z,4.27
2019-05-14T08:33:39.464Z,4.30
2019-05-14T08:36:04.133Z,3.83
2019-05-14T08:38:31.537Z,3.53
2019-05-14T08:40:59.108Z,3.90
2019-05-14T08:43:28.899Z,4.20
2019-05-14T08:45:53.823Z,3.37
2019-05-14T08:48:21.261Z,4.40
2019-05-14T08:50:48.663Z,3.67
2019-05-14T08:53:18.605Z,4.03
2019-05-14T08:55:43.555Z,4.03
2019-05-14T08:58:13.727Z,4.10
2019-05-14T09:00:38.688Z,3.90
2019-05-14T09:03:08.336Z,3.70
2019-05-14T09:05:33.260Z,3.87
2019-05-14T09:08:00.678Z,4.30
2019-05-14T09:10:28.614Z,3.70
2019-05-14T09:12:55.554Z,4.10
2019-05-14T09:15:22.961Z,3.60
2019-05-14T09:17:50.410Z,4.20
2019-05-14T09:20:18.753Z,3.20
2019-05-14T09:22:45.317Z,3.70
2019-05-14T09:25:12.753Z,3.73
2019-05-14T09:27:40.158Z,3.67
2019-05-14T09:30:09.613Z,3.60
2019-05-14T09:32:35.040Z,3.80
2019-05-14T09:35:02.528Z,3.27
2019-05-14T09:37:29.927Z,3.47
2019-05-14T09:39:58.392Z,3.20
2019-05-14T09:42:24.787Z,3.30
2019-05-14T09:44:52.251Z,3.30
2019-05-14T09:47:19.684Z,3.37
2019-05-14T09:49:49.139Z,3.60
2019-05-14T09:52:14.579Z,4.10
2019-05-14T09:54:44.111Z,3.90
2019-05-14T09:57:09.436Z,3.80
2019-05-14T09:59:38.498Z,3.93
2019-05-14T10:02:04.289Z,4.10
2019-05-14T10:04:31.701Z,4.67
2019-05-14T10:06:59.419Z,4.20
2019-05-14T10:09:28.835Z,4.20
2019-05-14T10:11:54.009Z,4.60
2019-05-14T10:14:21.419Z,4.10
2019-05-14T10:16:49.170Z,4.37
2019-05-14T10:19:18.940Z,4.53
2019-05-14T10:21:43.752Z,4.33
2019-05-14T10:24:11.161Z,5.63
2019-05-14T10:26:39.471Z,5.03
2019-05-14T10:29:08.511Z,5.00
2019-05-14T10:31:33.443Z,5.80
2019-05-14T10:34:00.848Z,5.00
2019-05-14T10:36:30.036Z,4.87
2019-05-14T10:38:55.731Z,5.03
2019-05-14T10:41:23.230Z,5.67
2019-05-14T10:43:50.609Z,5.00
2019-05-14T10:46:19.363Z,5.20
2019-05-14T10:48:45.512Z,6.93
2019-05-14T10:51:12.965Z,6.03
2019-05-14T10:53:40.403Z,6.07
2019-05-14T10:56:09.644Z,5.33
2019-05-14T10:58:35.265Z,4.93
2019-05-14T11:01:02.665Z,3.90
2019-05-14T11:03:30.412Z,4.40
2019-05-14T11:05:58.781Z,4.83
2019-05-14T11:08:24.996Z,8.47
2019-05-14T11:10:52.429Z,4.97
2019-05-14T11:13:19.863Z,4.13
2019-05-14T11:15:48.666Z,4.40
2019-05-14T11:18:14.715Z,4.37
2019-05-14T11:20:42.481Z,4.90
2019-05-14T11:23:09.599Z,4.67
2019-05-14T11:25:38.375Z,4.53
2019-05-14T11:28:04.423Z,4.53
2019-05-14T11:30:31.877Z,5.47
2019-05-14T11:32:59.344Z,4.93
2019-05-14T11:35:28.768Z,4.93
2019-05-14T11:37:54.216Z,4.93
2019-05-14T11:40:21.674Z,4.30
2019-05-14T11:42:49.615Z,4.70
2019-05-14T11:45:16.528Z,4.67
2019-05-14T11:47:43.928Z,4.67
2019-05-14T11:50:11.384Z,5.53
2019-05-14T11:52:39.008Z,4.70
2019-05-14T11:55:08.881Z,5.93
2019-05-14T11:57:33.639Z,5.40
2019-05-14T12:00:01.104Z,5.73
2019-05-14T12:02:28.993Z,5.10
2019-05-14T12:04:56.004Z,4.90
2019-05-14T12:07:23.481Z,5.03
2019-05-14T12:09:52.409Z,4.53
2019-05-14T12:12:19.033Z,4.50
2019-05-14T12:14:45.735Z,5.03
2019-05-14T12:17:13.188Z,4.80
2019-05-14T12:19:43.512Z,4.47
2019-05-14T12:22:11.555Z,4.03
2019-05-14T12:24:35.470Z,4.50
2019-05-14T12:27:02.902Z,4.87
2019-05-14T12:29:30.327Z,4.97
2019-05-14T12:31:58.592Z,5.37
2019-05-14T12:34:25.192Z,5.63
2019-05-14T12:36:52.578Z,5.43
2019-05-14T12:39:20.028Z,4.90
2019-05-14T12:41:48.999Z,5.33
2019-05-14T12:44:14.867Z,4.77
2019-05-14T12:46:42.276Z,5.40
2019-05-14T12:49:11.737Z,5.10
2019-05-14T12:51:41.684Z,4.60
2019-05-14T12:54:04.557Z,4.80
2019-05-14T12:56:32.003Z,4.90
2019-05-14T12:58:59.411Z,5.00
2019-05-14T13:01:26.837Z,5.27
2019-05-14T13:03:54.253Z,5.47
2019-05-14T13:06:21.688Z,4.90
2019-05-14T13:08:49.426Z,5.67
2019-05-14T13:11:16.554Z,5.10
2019-05-14T13:13:43.968Z,5.60
2019-05-14T13:16:11.407Z,5.57
2019-05-14T13:18:38.982Z,5.17
2019-05-14T13:21:06.276Z,5.90
2019-05-14T13:23:33.692Z,5.37
2019-05-14T13:26:01.112Z,5.33
2019-05-14T13:28:29.189Z,5.43
2019-05-14T13:30:55.957Z,5.17
2019-05-14T13:33:23.369Z,5.53
2019-05-14T13:35:50.818Z,5.50
2019-05-14T13:38:18.278Z,5.80
2019-05-14T13:40:45.651Z,5.80
2019-05-14T13:43:14.514Z,6.07
2019-05-14T13:45:40.523Z,5.50
2019-05-14T13:48:08.576Z,5.50
2019-05-14T13:50:35.360Z,5.53
2019-05-14T13:53:09.294Z,4.73
2019-05-14T13:55:30.831Z,5.23
2019-05-14T13:57:59.872Z,5.40
2019-05-14T14:00:25.048Z,5.30
2019-05-14T14:02:52.477Z,5.80
2019-05-14T14:05:20.507Z,6.07
2019-05-14T14:07:48.641Z,5.20
2019-05-14T14:10:14.749Z,5.27
2019-05-14T14:12:42.151Z,6.10
2019-05-14T14:15:09.890Z,5.90
2019-05-14T14:17:40.203Z,5.40
2019-05-14T14:20:08.294Z,5.97
2019-05-14T14:22:35.003Z,5.30
2019-05-14T14:25:02.413Z,5.47
2019-05-14T14:27:30.178Z,5.60
2019-05-14T14:29:58.495Z,5.23
2019-05-14T14:32:24.707Z,5.63
2019-05-14T14:34:52.158Z,5.37
2019-05-14T14:37:19.536Z,5.67
2019-05-14T14:39:48.653Z,5.30
2019-05-14T14:42:14.398Z,5.77
2019-05-14T14:44:41.800Z,5.20
2019-05-14T14:47:09.231Z,5.47
2019-05-14T14:49:42.304Z,5.27
2019-05-14T14:52:04.151Z,5.37
2019-05-14T14:54:31.552Z,5.33
2019-05-14T14:56:59.313Z,5.37
2019-05-14T14:59:26.375Z,5.70
2019-05-14T15:01:53.804Z,5.27
2019-05-14T15:04:21.226Z,5.67
2019-05-14T15:06:50.930Z,5.50
2019-05-14T15:09:16.092Z,5.43
2019-05-14T15:11:43.498Z,5.10
2019-05-14T15:14:10.927Z,5.30
2019-05-14T15:16:39.170Z,5.75
2019-05-14T15:19:05.758Z,5.43
2019-05-14T15:21:33.211Z,6.27
2019-05-14T15:24:09.803Z,5.80
2019-05-14T15:26:28.826Z,6.37
2019-05-14T15:28:55.454Z,5.57
2019-05-14T15:31:22.888Z,6.20
2019-05-14T15:33:50.936Z,5.80
2019-05-14T15:36:19.650Z,6.00
2019-05-14T15:38:45.152Z,6.20
2019-05-14T15:41:13.555Z,6.40
2019-05-14T15:43:40.064Z,5.70
2019-05-14T15:46:08.710Z,5.70
2019-05-14T15:48:34.864Z,5.80
2019-05-14T15:51:02.304Z,5.80
2019-05-14T15:53:30.046Z,5.83
2019-05-14T15:55:57.528Z,5.80
2019-05-14T15:58:24.906Z,6.30
2019-05-14T16:00:52.322Z,6.30
2019-05-14T16:03:19.770Z,6.03
2019-05-14T16:05:48.824Z,5.20
2019-05-14T16:08:14.658Z,5.10
2019-05-14T16:10:42.104Z,6.03
2019-05-14T16:13:09.552Z,5.70
2019-05-14T16:15:38.973Z,5.33
2019-05-14T16:18:11.126Z,5.60
2019-05-14T16:20:31.859Z,5.43
2019-05-14T16:22:59.291Z,5.60
2019-05-14T16:25:28.607Z,5.43
2019-05-14T16:27:54.157Z,5.77
2019-05-14T16:30:21.581Z,5.17
2019-05-14T16:32:49.006Z,4.60
2019-05-14T16:35:21.027Z,5.00
2019-05-14T16:37:43.846Z,5.07
2019-05-14T16:40:11.280Z,5.10
2019-05-14T16:42:39.634Z,4.73
2019-05-14T16:45:08.441Z,5.03
2019-05-14T16:47:33.568Z,5.33
2019-05-14T16:50:00.969Z,4.93
2019-05-14T16:52:28.766Z,4.80
2019-05-14T16:55:12.310Z,4.57
2019-05-14T16:57:23.374Z,4.27
2019-05-14T16:59:50.777Z,4.57
2019-05-14T17:02:19.104Z,4.40
2019-05-14T17:04:48.138Z,4.10
2019-05-14T17:07:13.040Z,4.23
2019-05-14T17:09:40.454Z,4.53
2019-05-14T17:12:08.536Z,4.27
2019-05-14T17:14:35.302Z,5.60
2019-05-14T17:17:02.710Z,5.47
2019-05-14T17:19:30.138Z,4.53
2019-05-14T17:21:59.421Z,4.70
2019-05-14T17:24:24.998Z,4.30
2019-05-14T17:26:52.439Z,4.50
2019-05-14T17:29:19.857Z,4.10
2019-05-14T17:31:49.386Z,4.30
2019-05-14T17:34:14.717Z,4.33
2019-05-14T17:36:42.150Z,4.03
2019-05-14T17:39:09.571Z,4.20
2019-05-14T17:41:41.627Z,4.57
2019-05-14T17:44:04.437Z,4.53
2019-05-14T17:46:31.830Z,4.60
2019-05-14T17:48:59.275Z,4.50
2019-05-14T17:51:28.449Z,4.10
2019-05-14T17:53:54.100Z,4.50
2019-05-14T17:56:22.933Z,3.87
2019-05-14T17:58:49.146Z,4.27
2019-05-14T18:01:18.307Z,4.63
2019-05-14T18:03:43.858Z,4.20
2019-05-14T18:06:11.262Z,4.70
2019-05-14T18:08:38.675Z,4.20
2019-05-14T18:11:08.534Z,4.23
2019-05-14T18:13:33.619Z,4.60
2019-05-14T18:16:01.030Z,4.23
2019-05-14T18:18:29.149Z,4.20
2019-05-14T18:20:58.100Z,4.13
2019-05-14T18:23:23.313Z,4.13
2019-05-14T18:26:03.322Z,3.70
2019-05-14T18:28:18.167Z,4.07
2019-05-14T18:30:45.659Z,4.33
2019-05-14T18:33:13.079Z,4.50
2019-05-14T18:35:45.377Z,4.23
2019-05-14T18:38:08.328Z,4.10
2019-05-14T18:40:35.354Z,3.90
2019-05-14T18:43:02.811Z,3.97
2019-05-14T18:45:30.210Z,3.93
2019-05-14T18:47:59.131Z,3.90
2019-05-14T18:50:25.060Z,3.93
2019-05-14T18:52:52.490Z,4.17
2019-05-14T18:55:19.909Z,4.10
2019-05-14T18:57:48.680Z,4.43
2019-05-14T19:00:14.763Z,3.50
2019-05-14T19:02:42.193Z,3.97
2019-05-14T19:05:10.256Z,3.70
2019-05-14T19:07:39.494Z,4.10
2019-05-14T19:10:05.151Z,3.50
2019-05-14T19:12:32.570Z,4.20
2019-05-14T19:15:00.035Z,4.33
2019-05-14T19:17:28.327Z,4.03
2019-05-14T19:19:54.905Z,3.80
2019-05-14T19:22:22.340Z,3.97
2019-05-14T19:24:49.775Z,4.27
2019-05-14T19:27:17.174Z,3.83
2019-05-14T19:29:44.625Z,4.17
2019-05-14T19:32:12.036Z,4.20
2019-05-14T19:34:39.475Z,4.50
2019-05-14T19:37:08.313Z,4.30
2019-05-14T19:39:34.325Z,5.37
2019-05-14T19:42:01.737Z,4.33
2019-05-14T19:44:29.749Z,4.67
2019-05-14T19:46:59.087Z,4.70
2019-05-14T19:49:23.985Z,4.87
2019-05-14T19:51:51.416Z,4.80
2019-05-14T19:54:19.570Z,4.30
2019-05-14T19:56:55.565Z,4.60
2019-05-14T19:59:13.713Z,4.90
2019-05-14T20:01:41.146Z,4.40
2019-05-14T20:04:09.551Z,4.80
2019-05-14T20:06:38.601Z,4.97
2019-05-14T20:09:03.449Z,4.57
2019-05-14T20:11:30.908Z,4.27
2019-05-14T20:13:59.052Z,5.03
2019-05-14T20:16:28.403Z,4.83
2019-05-14T20:18:53.183Z,5.57
2019-05-14T20:21:20.597Z,4.70
2019-05-14T20:23:48.275Z,4.70
2019-05-14T20:26:15.453Z,5.20
2019-05-14T20:28:42.880Z,4.87
2019-05-14T20:31:10.829Z,5.50
2019-05-14T20:33:37.839Z,5.07
2019-05-14T20:36:05.240Z,5.63
2019-05-14T20:38:32.664Z,5.07
2019-05-14T20:41:00.087Z,5.43
2019-05-14T20:43:29.049Z,4.53
2019-05-14T20:45:54.947Z,5.77
2019-05-14T20:48:22.359Z,5.10
2019-05-14T20:50:49.846Z,5.77
2019-05-14T20:53:18.578Z,5.80
2019-05-14T20:55:44.695Z,6.67
2019-05-14T20:58:12.135Z,6.73
2019-05-14T21:00:41.369Z,6.20
2019-05-14T21:03:10.158Z,6.33
2019-05-14T21:05:38.891Z,6.10
2019-05-14T21:08:05.101Z,5.63
2019-05-14T21:10:32.580Z,6.00
2019-05-14T21:13:00.051Z,5.83
2019-05-14T21:15:28.506Z,5.30
2019-05-14T21:17:55.045Z,5.03
2019-05-14T21:20:22.519Z,5.20
2019-05-14T21:22:50.357Z,5.27
2019-05-14T21:25:18.396Z,4.90
2019-05-14T21:27:51.208Z,5.37
2019-05-14T21:30:15.464Z,5.00
2019-05-14T21:32:42.991Z,4.97
2019-05-14T21:35:10.857Z,5.30
2019-05-14T21:37:39.346Z,5.07
2019-05-14T21:40:09.340Z,4.60
2019-05-14T21:42:38.347Z,5.10
2019-05-14T21:45:06.791Z,4.87
2019-05-14T21:47:31.453Z,4.37
2019-05-14T21:49:58.944Z,4.90
2019-05-14T21:52:28.828Z,4.83
2019-05-14T21:54:53.899Z,5.30
2019-05-14T21:57:21.383Z,5.23
2019-05-14T21:59:48.873Z,4.13
2019-05-14T22:02:24.782Z,5.00
2019-05-14T22:04:43.836Z,4.77
2019-05-14T22:07:11.295Z,5.77
2019-05-14T22:09:41.158Z,4.77
2019-05-14T22:12:06.229Z,4.40
2019-05-14T22:14:33.722Z,4.50
2019-05-14T22:17:01.173Z,4.63
2019-05-14T22:19:28.734Z,4.97
2019-05-14T22:21:58.555Z,4.67
2019-05-14T22:24:23.607Z,4.70
2019-05-14T22:26:51.083Z,5.00
2019-05-14T22:29:18.569Z,4.60
2019-05-14T22:31:46.027Z,4.70
2019-05-14T22:34:13.503Z,4.83
2019-05-14T22:36:40.979Z,4.53
2019-05-14T22:39:08.466Z,4.50
2019-05-14T22:41:38.060Z,4.60
2019-05-14T22:44:03.433Z,4.20
2019-05-14T22:46:30.893Z,4.70
2019-05-14T22:48:58.745Z,4.30
2019-05-14T22:51:25.842Z,4.63
2019-05-14T22:53:53.308Z,5.20
2019-05-14T22:56:20.786Z,4.67
2019-05-14T22:58:48.843Z,4.50
2019-05-14T23:01:18.150Z,5.17
2019-05-14T23:03:43.211Z,4.57
2019-05-14T23:06:10.671Z,4.90
2019-05-14T23:08:39.091Z,4.60
2019-05-14T23:11:05.643Z,4.77
2019-05-14T23:13:33.145Z,4.77
2019-05-14T23:16:00.613Z,4.40
2019-05-14T23:18:28.787Z,4.70
2019-05-14T23:20:55.565Z,4.80
2019-05-14T23:23:23.054Z,5.00
2019-05-14T23:25:50.528Z,4.60
2019-05-14T23:28:19.189Z,4.73
2019-05-14T23:30:48.015Z,4.73
2019-05-14T23:33:12.925Z,4.60
2019-05-14T23:35:40.423Z,4.87
2019-05-14T23:38:08.450Z,5.07
2019-05-14T23:40:35.396Z,4.47
2019-05-14T23:43:02.846Z,5.13
2019-05-14T23:45:30.329Z,5.27
2019-05-14T23:47:58.535Z,5.20
2019-05-14T23:50:25.286Z,5.10
2019-05-14T23:52:52.734Z,5.00
2019-05-14T23:55:20.224Z,4.90
2019-05-14T23:57:48.168Z,4.90
